Time;durP1;ratioP1;P1;durP2;ratioP2;P2;SDS_P1;SDS_P2;PMS_P1;PMS_P2;Temp;Humidity;BMP_temperature;BMP_pressure;BME280_temperature;BME280_humidity;BME280_pressure;Samples;Min_cycle;Max_cycle;Signal;HPM_P1;HPM_P2
2022/03/15 00:00:21;;;;;;;;;;;6.30;99.90;;;5.70;91.47;98341.69;4961293;28;19922;-83
2022/03/15 00:02:49;;;;;;;;;;;6.30;99.90;;;5.71;92.04;98336.47;4979445;28;20283;-84
2022/03/15 00:05:15;;;;;;;;;;;6.30;99.90;;;5.68;92.32;98330.38;4962205;28;20451;-82
2022/03/15 00:07:41;;;;;;;;;;;6.30;99.90;;;5.61;92.49;98319.03;4963846;28;20000;-83
2022/03/15 00:10:07;;;;;;;;;;;6.30;99.90;;;5.63;92.62;98321.66;4981682;28;20346;-86
2022/03/15 00:12:34;;;;;;;;;;;6.30;99.90;;;5.67;92.81;98316.44;4961395;28;20372;-85
2022/03/15 00:14:59;;;;;;;;;;;6.30;99.90;;;5.70;92.49;98305.06;4975995;28;19930;-86
2022/03/15 00:17:26;;;;;;;;;;;6.20;99.90;;;5.55;92.70;98288.53;4976235;28;19921;-83
2022/03/15 00:19:51;;;;;;;;;;;6.30;99.90;;;5.61;92.77;98315.56;4956995;28;19914;-83
2022/03/15 00:22:17;;;;;;;;;;;6.30;99.90;;;5.59;92.99;98319.94;4963535;28;19929;-86
2022/03/15 00:24:43;;;;;;;;;;;6.20;99.90;;;5.60;92.93;98313.81;4951825;28;19914;-84
2022/03/15 00:27:10;;;;;;;;;;;6.20;99.90;;;5.57;92.99;98313.84;4966255;28;20304;-82
2022/03/15 00:29:38;;;;;;;;;;;6.20;99.90;;;5.62;93.20;98305.09;4983292;28;20013;-84
2022/03/15 00:32:04;;;;;;;;;;;6.20;99.90;;;5.57;93.43;98311.22;4956974;28;19913;-82
2022/03/15 00:34:30;;;;;;;;;;;6.20;99.90;;;5.55;93.26;98305.97;4975156;28;20206;-85
2022/03/15 00:36:56;;;;;;;;;;;6.20;99.90;;;5.60;93.64;98316.41;4943930;28;19913;-83
2022/03/15 00:39:21;;;;;;;;;;;6.20;99.90;;;5.53;93.54;98319.06;4975692;28;19956;-84
2022/03/15 00:41:47;;;;;;;;;;;6.20;99.90;;;5.34;93.98;98301.66;4978881;28;20208;-84
2022/03/15 00:44:12;;;;;;;;;;;6.10;99.90;;;5.28;93.82;98286.84;4958797;28;20265;-85
2022/03/15 00:46:38;;;;;;;;;;;6.10;99.90;;;5.35;94.35;98298.19;4959934;28;20429;-82
2022/03/15 00:49:04;;;;;;;;;;;6.00;99.90;;;5.33;94.38;98289.47;4959654;28;19956;-86
2022/03/15 00:51:31;;;;;;;;;;;6.00;99.90;;;5.27;94.72;98286.84;4960041;28;19960;-83
2022/03/15 00:53:57;;;;;;;;;;;5.90;99.90;;;5.34;94.70;98291.19;4959485;28;19918;-86
2022/03/15 00:56:22;;;;;;;;;;;5.90;99.90;;;5.20;95.14;98267.66;4961467;28;19928;-84
2022/03/15 00:58:48;;;;;;;;;;;5.90;99.90;;;5.28;95.22;98284.22;4962934;28;19921;-83
2022/03/15 01:01:14;;;;;;;;;;;5.90;99.90;;;5.08;95.32;98252.00;4957931;28;20064;-86
2022/03/15 01:03:39;;;;;;;;;;;5.90;99.90;;;5.24;95.52;98276.38;4965459;28;20339;-85
2022/03/15 01:06:05;;;;;;;;;;;5.90;99.90;;;5.25;95.87;98284.22;4962492;28;19945;-83
2022/03/15 01:08:31;;;;;;;;;;;5.90;99.90;;;5.26;95.55;98277.28;4963593;28;19936;-85
2022/03/15 01:11:00;;;;;;;;;;;5.90;99.90;;;5.26;95.51;98280.75;4959901;28;19922;-83
2022/03/15 01:13:26;;;;;;;;;;;5.90;99.90;;;5.27;95.62;98276.38;4962748;28;19921;-83
2022/03/15 01:15:51;;;;;;;;;;;5.90;99.90;;;5.24;96.08;98272.03;4967245;28;20442;-86
2022/03/15 01:18:17;;;;;;;;;;;5.90;99.90;;;5.13;96.75;98251.13;4977732;28;19921;-86
2022/03/15 01:20:43;;;;;;;;;;;5.90;99.90;;;5.18;97.13;98258.09;4959300;28;20299;-86
2022/03/15 01:23:10;;;;;;;;;;;5.90;99.90;;;5.23;97.08;98269.44;4944755;28;19928;-84
2022/03/15 01:25:37;;;;;;;;;;;5.80;99.90;;;5.27;97.22;98279.84;4967924;28;19972;-85
2022/03/15 01:28:04;;;;;;;;;;;5.80;99.90;;;5.23;97.32;98270.28;4945707;28;19922;-86
2022/03/15 01:30:30;;;;;;;;;;;5.80;99.90;;;5.14;97.53;98252.84;4965455;28;20052;-84
2022/03/15 01:32:56;;;;;;;;;;;5.80;99.90;;;5.16;97.17;98261.56;4960415;28;19914;-86
2022/03/15 01:35:22;;;;;;;;;;;5.80;99.90;;;5.21;97.53;98252.88;4959356;28;20339;-85
2022/03/15 01:37:47;;;;;;;;;;;5.80;99.90;;;5.09;97.73;98232.81;4983679;28;19957;-83
2022/03/15 01:40:13;;;;;;;;;;;5.80;99.90;;;5.22;97.98;98258.06;4956526;28;19982;-83
2022/03/15 01:42:40;;;;;;;;;;;5.80;99.90;;;5.19;98.23;98268.56;4961174;28;19930;-85
2022/03/15 01:45:06;;;;;;;;;;;5.80;99.90;;;5.07;98.20;98245.91;4977608;28;19990;-85
2022/03/15 01:47:32;;;;;;;;;;;5.80;99.90;;;5.12;98.58;98236.31;4960312;28;19968;-82
2022/03/15 01:49:58;;;;;;;;;;;5.80;99.90;;;5.20;99.29;98232.81;4947461;28;19917;-84
2022/03/15 01:52:24;;;;;;;;;;;5.80;99.90;;;5.00;99.35;98207.56;4964565;28;20253;-85
2022/03/15 01:54:50;;;;;;;;;;;5.80;99.90;;;5.09;99.35;98218.00;4978320;28;19981;-84
2022/03/15 01:57:16;;;;;;;;;;;5.80;99.90;;;5.11;99.40;98241.53;4960261;28;19929;-83
2022/03/15 01:59:42;;;;;;;;;;;5.70;99.90;;;5.03;99.45;98238.94;4945474;28;19913;-85
2022/03/15 02:02:08;;;;;;;;;;;5.70;99.90;;;5.02;99.22;98233.72;4945492;28;19918;-83
2022/03/15 02:04:36;;;;;;;;;;;5.70;99.90;;;5.07;99.27;98232.81;4963308;28;19975;-84
2022/03/15 02:07:21;;;;;;;;;;;5.70;99.90;;;5.03;99.41;98238.09;4958659;28;19928;-86
2022/03/15 02:09:48;;;;;;;;;;;5.70;99.90;;;5.02;99.76;98242.41;4961822;28;19918;-84
2022/03/15 02:12:14;;;;;;;;;;;5.70;99.90;;;4.95;100.00;98232.84;4963537;28;20040;-84
2022/03/15 02:14:39;;;;;;;;;;;5.60;99.90;;;4.92;100.00;98222.41;4979681;28;20129;-85
2022/03/15 02:17:05;;;;;;;;;;;5.60;99.90;;;4.98;100.00;98230.22;4960296;28;19952;-86
2022/03/15 02:19:32;;;;;;;;;;;5.60;99.90;;;4.87;100.00;98211.09;4977620;28;19924;-86
2022/03/15 02:21:58;;;;;;;;;;;5.60;99.90;;;5.02;100.00;98247.66;5001025;23;19990;-50
2022/03/15 02:24:24;;;;;;;;;;;5.60;99.90;;;5.00;100.00;98251.16;5018686;28;19924;-47
2022/03/15 02:26:51;;;;;;;;;;;5.60;99.90;;;4.92;100.00;98241.56;5010295;28;20178;-46
2022/03/15 02:29:18;;;;;;;;;;;5.60;99.90;;;4.89;100.00;98238.94;5006650;28;19963;-48
2022/03/15 02:31:44;;;;;;;;;;;5.60;99.90;;;4.93;99.68;98231.97;5008427;28;19917;-50
2022/03/15 02:36:44;;;;;;;;;;;5.50;99.90;;;4.97;99.37;98231.09;4967949;28;21171;-34
2022/03/15 02:39:10;;;;;;;;;;;5.60;99.90;;;4.97;99.49;98229.38;4969162;28;19922;-37
2022/03/15 02:41:35;;;;;;;;;;;5.60;99.90;;;5.01;99.21;98224.13;4969424;28;20043;-36
2022/03/15 02:44:01;;;;;;;;;;;5.60;99.90;;;5.03;99.55;98223.25;4968974;28;20184;-34
2022/03/15 02:46:29;;;;;;;;;;;5.60;99.90;;;5.05;99.51;98218.88;4971880;28;19918;-35
2022/03/15 02:48:55;;;;;;;;;;;5.60;99.90;;;5.04;100.00;98224.97;4968833;28;19917;-39
2022/03/15 02:51:21;;;;;;;;;;;5.60;99.90;;;5.04;99.83;98213.66;4971539;28;19929;-35
2022/03/15 02:53:47;;;;;;;;;;;5.60;99.90;;;5.05;99.71;98212.81;4975192;28;19918;-38
2022/03/15 02:56:13;;;;;;;;;;;5.60;99.90;;;5.07;99.91;98211.03;4975719;28;19928;-36
2022/03/15 02:58:39;;;;;;;;;;;5.60;99.90;;;5.05;100.00;98215.41;4977289;28;20379;-38
2022/03/15 03:01:05;;;;;;;;;;;5.70;99.90;;;5.03;100.00;98204.09;4971783;28;20858;-34
2022/03/15 03:03:30;;;;;;;;;;;5.70;99.90;;;5.09;100.00;98215.38;4974406;28;19925;-37
2022/03/15 03:05:56;;;;;;;;;;;5.70;99.90;;;5.05;100.00;98200.59;4974505;28;20315;-34
2022/03/15 03:08:25;;;;;;;;;;;5.70;99.90;;;5.10;99.88;98213.66;4975368;28;19928;-36
2022/03/15 03:10:52;;;;;;;;;;;5.70;99.90;;;5.06;99.81;98202.34;4975397;28;19922;-34
2022/03/15 03:13:24;;;;;;;;;;;5.70;99.90;;;5.10;99.57;98209.28;4975819;28;20436;-38
2022/03/15 03:15:49;;;;;;;;;;;5.70;99.90;;;5.12;99.56;98217.13;4967490;28;19914;-40
2022/03/15 03:18:15;;;;;;;;;;;5.70;99.90;;;5.13;99.83;98214.53;4972662;28;19918;-39
2022/03/15 03:20:42;;;;;;;;;;;5.70;99.90;;;5.11;99.93;98212.78;4970355;28;20019;-36
2022/03/15 03:23:07;;;;;;;;;;;5.70;99.90;;;5.12;99.99;98211.91;4967135;28;21022;-38
2022/03/15 03:25:36;;;;;;;;;;;5.70;99.90;;;5.13;100.00;98205.78;4972078;28;19921;-35
2022/03/15 03:28:03;;;;;;;;;;;5.70;99.90;;;5.15;100.00;98210.16;4976514;28;20008;-36
2022/03/15 03:30:29;;;;;;;;;;;5.70;99.90;;;5.14;100.00;98205.78;4976990;28;20379;-34
2022/03/15 03:32:56;;;;;;;;;;;5.70;99.90;;;5.15;100.00;98207.53;4970954;28;19928;-34
2022/03/15 03:35:21;;;;;;;;;;;5.70;99.90;;;5.15;100.00;98198.81;4969418;28;20175;-35
2022/03/15 03:37:47;;;;;;;;;;;5.70;99.90;;;5.15;100.00;98198.81;4974999;28;21154;-34
2022/03/15 03:40:12;;;;;;;;;;;5.70;99.90;;;5.14;100.00;98197.09;4974249;28;20004;-34
2022/03/15 03:42:38;;;;;;;;;;;5.70;99.90;;;5.14;99.92;98187.47;4976749;28;19922;-32
2022/03/15 03:45:05;;;;;;;;;;;5.80;99.90;;;5.13;99.71;98188.38;4970072;28;20391;-35
2022/03/15 03:47:30;;;;;;;;;;;5.70;99.90;;;5.15;99.85;98180.50;4979703;28;20280;-34
2022/03/15 03:49:56;;;;;;;;;;;5.70;99.90;;;5.16;99.92;98187.47;4970533;28;20368;-35
2022/03/15 03:52:22;;;;;;;;;;;5.70;99.90;;;5.16;100.00;98182.25;4966819;28;20703;-35
2022/03/15 03:54:48;;;;;;;;;;;5.80;99.90;;;5.16;100.00;98188.34;4973219;28;19933;-33
2022/03/15 03:57:13;;;;;;;;;;;5.80;99.90;;;5.16;100.00;98193.56;4966704;28;19975;-37
2022/03/15 03:59:39;;;;;;;;;;;5.80;99.90;;;5.17;99.80;98178.78;4966319;28;20512;-35
2022/03/15 04:02:04;;;;;;;;;;;5.70;99.90;;;5.20;99.99;98177.88;4966275;28;20377;-33
2022/03/15 04:04:30;;;;;;;;;;;5.80;99.90;;;5.20;100.00;98183.13;4964726;28;20024;-38
2022/03/15 04:06:57;;;;;;;;;;;5.80;99.90;;;5.19;100.00;98182.25;4967762;28;20189;-36
2022/03/15 04:09:23;;;;;;;;;;;5.80;99.90;;;5.18;100.00;98183.13;4968878;28;20435;-33
2022/03/15 04:11:49;;;;;;;;;;;5.70;99.90;;;5.18;100.00;98187.50;4965589;28;19921;-37
2022/03/15 04:14:15;;;;;;;;;;;5.80;99.90;;;5.11;100.00;98187.47;4966284;28;19932;-36
2022/03/15 04:16:42;;;;;;;;;;;5.70;99.90;;;5.12;100.00;98181.41;4968125;28;19922;-35
2022/03/15 04:19:08;;;;;;;;;;;5.70;99.90;;;5.08;100.00;98177.06;4965312;28;19921;-34
2022/03/15 04:21:34;;;;;;;;;;;5.70;99.90;;;5.08;100.00;98177.06;4975188;28;20150;-36
2022/03/15 04:24:00;;;;;;;;;;;5.70;99.90;;;5.06;100.00;98173.59;4973310;28;19922;-36
2022/03/15 04:26:26;;;;;;;;;;;5.60;99.90;;;5.04;100.00;98172.69;4973263;28;20330;-34
2022/03/15 04:28:53;;;;;;;;;;;5.60;99.90;;;5.03;100.00;98181.41;4972789;28;19921;-36
2022/03/15 04:31:19;;;;;;;;;;;5.60;99.90;;;5.02;100.00;98184.91;4969825;28;20394;-38
2022/03/15 04:33:45;;;;;;;;;;;5.60;99.90;;;5.01;100.00;98175.34;4971089;28;22334;-33
2022/03/15 04:36:11;;;;;;;;;;;5.60;99.90;;;5.00;100.00;98181.41;4968322;28;19925;-34
2022/03/15 04:38:36;;;;;;;;;;;5.60;99.90;;;4.98;100.00;98163.13;4971796;28;20388;-34
2022/03/15 04:41:05;;;;;;;;;;;5.60;99.90;;;4.97;100.00;98165.72;4970625;28;19914;-38
2022/03/15 04:43:31;;;;;;;;;;;5.60;99.90;;;4.94;100.00;98169.25;4971657;28;20339;-35
2022/03/15 04:45:57;;;;;;;;;;;5.60;99.90;;;4.94;100.00;98169.25;4971988;28;19917;-35
2022/03/15 04:48:23;;;;;;;;;;;5.50;99.90;;;4.92;100.00;98160.53;4967721;28;19921;-36
2022/03/15 04:50:49;;;;;;;;;;;5.50;99.90;;;4.92;100.00;98157.06;4978014;28;20780;-35
2022/03/15 04:53:15;;;;;;;;;;;5.50;99.90;;;4.92;100.00;98157.06;4971735;28;20391;-37
2022/03/15 04:55:40;;;;;;;;;;;5.50;99.90;;;4.90;100.00;98164.00;4978534;28;19918;-36
2022/03/15 04:58:06;;;;;;;;;;;5.50;99.90;;;4.91;100.00;98158.78;4978210;28;19928;-36
2022/03/15 05:00:32;;;;;;;;;;;5.50;99.90;;;4.94;100.00;98150.09;4969493;28;20379;-36
2022/03/15 05:02:58;;;;;;;;;;;5.60;99.90;;;4.93;100.00;98145.72;4972011;28;19945;-40
2022/03/15 05:05:23;;;;;;;;;;;5.60;99.90;;;5.02;100.00;98163.13;4972412;28;20746;-33
2022/03/15 05:07:49;;;;;;;;;;;5.60;99.90;;;5.03;100.00;98160.50;4971463;28;20005;-35
2022/03/15 05:13:00;;;;;;;;;;;5.60;99.90;;;5.06;100.00;98162.22;4972476;28;19928;-37
2022/03/15 05:15:26;;;;;;;;;;;5.60;99.90;;;5.00;100.00;98147.44;4979016;28;20262;-36
2022/03/15 05:17:52;;;;;;;;;;;5.60;99.90;;;5.02;100.00;98150.91;4978074;28;19929;-38
2022/03/15 05:20:18;;;;;;;;;;;5.60;99.90;;;5.02;100.00;98156.13;4975535;28;20355;-38
2022/03/15 05:22:44;;;;;;;;;;;5.60;99.90;;;4.95;100.00;98152.69;4980047;28;20015;-37
2022/03/15 05:25:13;;;;;;;;;;;5.60;99.90;;;5.00;100.00;98151.81;4974315;28;19913;-37
2022/03/15 05:27:40;;;;;;;;;;;5.60;99.90;;;5.00;100.00;98144.81;4980566;28;19914;-35
2022/03/15 05:30:06;;;;;;;;;;;5.60;99.90;;;4.96;100.00;98140.47;4976970;28;20012;-37
2022/03/15 05:32:32;;;;;;;;;;;5.60;99.90;;;5.03;100.00;98150.06;4979605;28;19953;-38
2022/03/15 05:34:58;;;;;;;;;;;5.60;99.90;;;5.04;100.00;98146.53;4970888;28;20036;-38
2022/03/15 05:37:24;;;;;;;;;;;5.60;99.90;;;5.02;100.00;98143.06;4973453;28;19952;-34
2022/03/15 05:39:49;;;;;;;;;;;5.60;99.90;;;5.03;100.00;98149.19;4978140;28;20478;-36
2022/03/15 05:42:17;;;;;;;;;;;5.60;99.90;;;5.03;100.00;98157.03;4973928;28;19983;-36
2022/03/15 05:44:43;;;;;;;;;;;5.60;99.90;;;5.02;100.00;98158.75;4977344;28;19928;-35
2022/03/15 05:47:08;;;;;;;;;;;5.60;99.90;;;5.02;100.00;98157.91;4978773;28;20295;-35
2022/03/15 05:49:34;;;;;;;;;;;5.60;99.90;;;5.01;100.00;98158.75;4980583;28;19928;-34
2022/03/15 05:52:00;;;;;;;;;;;5.60;99.90;;;5.01;100.00;98154.41;4982233;28;20385;-35
2022/03/15 05:54:26;;;;;;;;;;;5.60;99.90;;;5.00;100.00;98150.06;4982434;28;19949;-36
2022/03/15 05:56:51;;;;;;;;;;;5.60;99.90;;;5.03;100.00;98149.19;4978042;28;19922;-35
2022/03/15 05:59:17;;;;;;;;;;;5.60;99.90;;;4.99;100.00;98143.09;4982905;28;19967;-34
2022/03/15 06:01:43;;;;;;;;;;;5.60;99.90;;;5.03;100.00;98139.59;4985917;28;20016;-38
2022/03/15 06:04:10;;;;;;;;;;;5.60;99.90;;;5.09;100.00;98138.69;4980763;28;20395;-37
2022/03/15 06:06:37;;;;;;;;;;;5.70;99.90;;;5.16;100.00;98141.28;4983464;28;20000;-35
2022/03/15 06:09:03;;;;;;;;;;;5.80;99.90;;;5.23;100.00;98138.66;4980667;28;20124;-35
2022/03/15 06:11:32;;;;;;;;;;;5.80;99.90;;;5.28;100.00;98129.06;4982441;28;19913;-35
2022/03/15 06:13:58;;;;;;;;;;;5.90;99.90;;;5.37;100.00;98136.00;4982619;28;20091;-35
2022/03/15 06:16:24;;;;;;;;;;;5.90;99.90;;;5.44;100.00;98125.50;4981297;28;19977;-38
2022/03/15 06:18:50;;;;;;;;;;;6.00;99.90;;;5.51;100.00;98127.19;4977354;28;20004;-37
2022/03/15 06:21:19;;;;;;;;;;;6.10;99.90;;;5.60;100.00;98128.00;4981774;28;20021;-37
2022/03/15 06:23:44;;;;;;;;;;;6.20;99.90;;;5.68;100.00;98145.41;4981124;28;20418;-36
2022/03/15 06:26:10;;;;;;;;;;;6.30;99.90;;;5.77;99.90;98136.63;4979136;28;20004;-38
2022/03/15 06:28:36;;;;;;;;;;;6.30;99.90;;;5.86;98.91;98139.19;4978637;28;19928;-34
2022/03/15 06:31:02;;;;;;;;;;;6.40;99.90;;;5.97;98.41;98138.31;4978452;28;19928;-36
2022/03/15 06:33:29;;;;;;;;;;;6.50;99.90;;;6.06;97.98;98139.09;4980595;28;19914;-36
2022/03/15 06:35:54;;;;;;;;;;;6.60;99.90;;;6.18;97.70;98134.66;4980102;28;20101;-35
2022/03/15 06:38:20;;;;;;;;;;;6.70;99.90;;;6.27;96.91;98145.94;4980884;28;19913;-35
2022/03/15 06:40:48;;;;;;;;;;;6.80;99.90;;;6.35;96.72;98140.63;4975615;28;20081;-36
2022/03/15 06:43:14;;;;;;;;;;;6.90;99.90;;;6.45;95.88;98146.66;4977803;28;20358;-37
2022/03/15 06:45:41;;;;;;;;;;;7.00;99.90;;;6.54;95.34;98143.09;4981207;28;20016;-35
2022/03/15 06:48:08;;;;;;;;;;;7.00;99.90;;;6.64;94.77;98140.38;4978874;28;19958;-38
2022/03/15 06:50:34;;;;;;;;;;;7.10;99.90;;;6.75;94.12;98136.78;4977621;28;20004;-37
2022/03/15 06:53:00;;;;;;;;;;;7.30;99.90;;;6.85;93.03;98138.41;4975777;28;19917;-36
2022/03/15 06:55:26;;;;;;;;;;;7.30;99.90;;;6.96;92.16;98139.16;4975755;28;19929;-39
2022/03/15 06:57:52;;;;;;;;;;;7.50;99.90;;;7.03;91.44;98139.97;4976046;28;19914;-36
2022/03/15 07:00:18;;;;;;;;;;;7.50;99.90;;;7.06;90.19;98122.47;4978693;28;19913;-35
2022/03/15 07:02:44;;;;;;;;;;;7.60;99.90;;;7.13;89.86;98120.63;4977739;28;19984;-34
2022/03/15 07:05:10;;;;;;;;;;;7.70;99.90;;;7.14;89.75;98108.38;4978115;28;19941;-36
2022/03/15 07:07:36;;;;;;;;;;;7.70;99.90;;;7.28;89.43;98137.09;4977926;28;19917;-36
2022/03/15 07:10:05;;;;;;;;;;;7.80;99.90;;;7.32;88.99;98141.41;4975163;28;19956;-39
2022/03/15 07:12:32;;;;;;;;;;;7.80;99.90;;;7.37;88.83;98140.44;4978510;28;19914;-38
2022/03/15 07:14:59;;;;;;;;;;;7.90;99.90;;;7.47;88.71;98138.59;4979345;28;20362;-39
2022/03/15 07:17:25;;;;;;;;;;;8.00;99.90;;;7.56;87.76;98141.09;4982153;28;20919;-35
2022/03/15 07:19:50;;;;;;;;;;;8.10;99.90;;;7.65;86.88;98130.47;4976382;28;20377;-34
2022/03/15 07:22:16;;;;;;;;;;;8.10;99.90;;;7.73;85.95;98134.75;4980257;28;19925;-36
2022/03/15 07:24:42;;;;;;;;;;;8.20;99.90;;;7.79;84.87;98129.44;4974469;28;20580;-36
2022/03/15 07:27:07;;;;;;;;;;;8.30;99.90;;;7.81;84.59;98128.50;4975592;28;19992;-36
2022/03/15 07:29:34;;;;;;;;;;;8.30;99.90;;;7.84;84.09;98123.22;4976825;28;20200;-36
2022/03/15 07:31:59;;;;;;;;;;;8.40;99.90;;;7.88;83.75;98123.16;4974870;28;20424;-36
2022/03/15 07:34:25;;;;;;;;;;;8.40;99.90;;;7.95;83.62;98122.19;4979819;28;20272;-37
2022/03/15 07:36:51;;;;;;;;;;;8.40;99.90;;;8.00;83.04;98122.97;4978254;28;20049;-37
2022/03/15 07:39:17;;;;;;;;;;;8.50;99.90;;;8.07;82.39;98131.63;4977620;28;19957;-38
2022/03/15 07:41:43;;;;;;;;;;;8.60;99.90;;;8.12;81.85;98132.44;4976636;28;19909;-37
2022/03/15 07:44:12;;;;;;;;;;;8.60;99.90;;;8.17;81.36;98118.34;4976795;28;19964;-37
2022/03/15 07:46:38;;;;;;;;;;;8.70;99.90;;;8.21;82.33;98109.50;4974382;28;19913;-37
2022/03/15 07:49:04;;;;;;;;;;;8.70;99.90;;;8.24;81.75;98111.22;4990522;28;20426;-33
2022/03/15 07:51:30;;;;;;;;;;;8.70;99.90;;;8.20;80.24;98104.28;4976318;28;19929;-35
2022/03/15 07:53:56;;;;;;;;;;;8.70;99.90;;;8.29;80.65;98108.50;4976420;28;20008;-35
2022/03/15 07:56:22;;;;;;;;;;;8.80;99.90;;;8.38;80.17;98108.34;4982730;28;19927;-37
2022/03/15 07:58:48;;;;;;;;;;;8.90;99.90;;;8.46;80.40;98106.50;4981324;28;20280;-37
2022/03/15 08:01:13;;;;;;;;;;;9.00;99.90;;;8.55;80.20;98111.59;4978254;28;19921;-36
2022/03/15 08:03:39;;;;;;;;;;;9.00;99.90;;;8.65;79.37;98109.69;4984111;28;19936;-38
2022/03/15 08:06:05;;;;;;;;;;;9.10;99.90;;;8.75;78.44;98097.22;4982278;28;19918;-37
2022/03/15 08:08:30;;;;;;;;;;;9.20;99.90;;;8.88;76.88;98098.75;4981106;28;19926;-39
2022/03/15 08:10:56;;;;;;;;;;;9.40;99.90;;;8.96;76.78;98102.09;4979192;28;19914;-35
2022/03/15 08:13:22;;;;;;;;;;;9.50;99.90;;;9.08;75.16;98100.09;4974278;28;19921;-36
2022/03/15 08:15:48;;;;;;;;;;;9.60;99.90;;;9.23;75.04;98091.91;4980441;28;19936;-36
2022/03/15 08:18:14;;;;;;;;;;;9.70;99.90;;;9.36;73.59;98103.91;4979797;28;19920;-39
2022/03/15 08:20:41;;;;;;;;;;;9.80;99.90;;;9.47;73.31;98108.09;4980110;28;19918;-36
2022/03/15 08:23:12;;;;;;;;;;;9.90;99.90;;;9.62;71.37;98112.16;4978821;28;19926;-37
2022/03/15 08:25:38;;;;;;;;;;;10.10;99.90;;;9.72;70.45;98095.25;4978839;28;19914;-38
2022/03/15 08:28:03;;;;;;;;;;;10.20;99.90;;;9.86;69.49;98092.31;4980852;28;20410;-38
2022/03/15 08:30:29;;;;;;;;;;;10.30;99.90;;;10.06;69.07;98091.84;4979917;28;19961;-38
2022/03/15 08:32:55;;;;;;;;;;;10.50;99.90;;;10.19;67.19;98088.00;4978556;28;20167;-33
2022/03/15 08:35:21;;;;;;;;;;;10.60;99.90;;;10.32;66.14;98083.34;4978434;28;19917;-36
2022/03/15 08:37:50;;;;;;;;;;;10.80;99.90;;;10.46;65.57;98094.41;4981920;28;20590;-35
2022/03/15 08:40:20;;;;;;;;;;;10.90;99.90;;;10.54;62.64;98081.03;4978120;28;19928;-36
2022/03/15 08:42:46;;;;;;;;;;;11.10;99.90;;;10.75;63.00;98091.91;4978691;28;20262;-34
2022/03/15 08:45:11;;;;;;;;;;;11.20;99.90;;;10.90;62.98;98099.44;4982078;28;20038;-35
2022/03/15 08:47:38;;;;;;;;;;;11.30;99.90;;;10.99;62.11;98090.41;4980458;28;19918;-35
2022/03/15 08:50:05;;;;;;;;;;;11.40;99.90;;;11.03;60.81;98087.63;4978104;28;20319;-33
2022/03/15 08:52:31;;;;;;;;;;;11.50;99.90;;;10.99;60.38;98072.78;4980778;28;19913;-40
2022/03/15 08:54:57;;;;;;;;;;;11.50;99.90;;;11.16;61.43;98079.34;4979948;28;19928;-36
2022/03/15 08:57:23;;;;;;;;;;;11.60;99.90;;;11.05;59.70;98085.81;4980376;28;19913;-35
2022/03/15 08:59:49;;;;;;;;;;;11.50;99.90;;;11.06;58.28;98084.91;4976996;28;20015;-39
2022/03/15 09:02:17;;;;;;;;;;;11.50;99.90;;;10.79;58.42;98091.81;4981641;28;20056;-36
2022/03/15 09:04:43;;;;;;;;;;;11.40;99.90;;;10.66;60.58;98098.31;4977973;28;19961;-34
2022/03/15 09:07:09;;;;;;;;;;;11.20;99.90;;;10.55;60.12;98088.03;4982996;28;20303;-35
2022/03/15 09:09:34;;;;;;;;;;;11.20;99.90;;;10.56;60.33;98088.91;4982687;28;19917;-34
2022/03/15 09:12:02;;;;;;;;;;;11.10;99.90;;;10.44;62.54;98096.19;4980554;28;20565;-35
2022/03/15 09:14:28;;;;;;;;;;;11.00;99.90;;;10.46;62.44;98099.69;4981221;28;19992;-36
2022/03/15 09:16:53;;;;;;;;;;;10.90;99.90;;;10.37;63.20;98081.44;4978885;28;19928;-36
2022/03/15 09:19:19;;;;;;;;;;;10.90;99.90;;;10.39;64.19;98081.41;4985645;28;20264;-35
2022/03/15 09:21:44;;;;;;;;;;;10.80;99.90;;;10.26;66.12;98079.03;4978998;28;19961;-35
2022/03/15 09:24:10;;;;;;;;;;;10.80;99.90;;;10.28;66.69;98074.63;4980896;28;19933;-35
2022/03/15 09:26:36;;;;;;;;;;;10.80;99.90;;;10.43;68.17;98075.19;4980680;28;19913;-37
2022/03/15 09:29:02;;;;;;;;;;;10.90;99.90;;;10.57;70.68;98067.78;4976923;28;19928;-37
2022/03/15 09:31:28;;;;;;;;;;;11.00;99.90;;;10.71;72.23;98067.38;4978240;28;19913;-39
2022/03/15 09:33:53;;;;;;;;;;;11.20;99.90;;;10.83;72.83;98053.84;4979303;28;19913;-37
2022/03/15 09:36:19;;;;;;;;;;;11.30;99.90;;;10.80;74.35;98059.25;4978055;28;20363;-39
2022/03/15 09:38:45;;;;;;;;;;;11.30;99.90;;;10.81;74.73;98047.75;4981227;28;19918;-36
2022/03/15 09:41:14;;;;;;;;;;;11.30;99.90;;;10.64;79.06;98050.00;4979611;28;19953;-36
2022/03/15 09:43:45;;;;;;;;;;;11.20;99.90;;;10.43;80.31;98040.88;4977542;28;19933;-38
2022/03/15 09:46:12;;;;;;;;;;;11.00;99.90;;;10.38;81.44;98033.09;4981264;28;20354;-35
2022/03/15 09:48:40;;;;;;;;;;;10.90;99.90;;;10.47;81.52;98018.81;4977796;28;20384;-36
2022/03/15 09:51:06;;;;;;;;;;;10.90;99.90;;;10.44;84.32;98021.50;4975286;28;19913;-39
2022/03/15 09:53:34;;;;;;;;;;;10.90;99.90;;;10.38;85.20;98019.06;4976762;28;20033;-37
2022/03/15 09:56:00;;;;;;;;;;;10.80;99.90;;;10.38;86.98;98016.41;4978641;28;19917;-37
2022/03/15 09:58:25;;;;;;;;;;;10.80;99.90;;;10.21;87.38;98001.88;4974839;28;19946;-35
2022/03/15 10:00:55;;;;;;;;;;;10.70;99.90;;;10.33;86.86;98003.34;4976138;28;19914;-34
2022/03/15 10:03:21;;;;;;;;;;;10.70;99.90;;;10.34;86.53;97993.66;4975677;28;19926;-38
2022/03/15 10:05:49;;;;;;;;;;;10.70;99.90;;;10.39;86.38;97987.38;4975395;28;19928;-35
2022/03/15 10:08:20;;;;;;;;;;;10.80;99.90;;;10.46;86.18;97994.22;4980752;28;20004;-36
2022/03/15 10:10:50;;;;;;;;;;;10.80;99.90;;;10.41;84.62;97985.56;4982922;28;19965;-36
2022/03/15 10:13:17;;;;;;;;;;;10.80;99.90;;;10.32;84.33;97977.91;4977807;28;19917;-36
2022/03/15 10:15:52;;;;;;;;;;;10.80;99.90;;;10.33;84.94;97976.97;4977103;28;19968;-38
2022/03/15 10:18:18;;;;;;;;;;;10.80;99.90;;;10.42;86.49;97973.22;4979771;28;20390;-37
2022/03/15 10:20:44;;;;;;;;;;;10.80;99.90;;;10.47;86.90;97961.63;4978178;28;19921;-34
2022/03/15 10:23:10;;;;;;;;;;;10.90;99.90;;;10.54;87.28;97951.78;4975564;28;19965;-38
2022/03/15 10:25:37;;;;;;;;;;;11.00;99.90;;;10.68;86.72;97949.63;4979133;28;19914;-36
2022/03/15 10:28:05;;;;;;;;;;;11.00;99.90;;;10.72;85.03;97954.84;4976146;28;19914;-38
2022/03/15 10:30:31;;;;;;;;;;;11.10;99.90;;;10.70;85.57;97947.81;4974934;28;20039;-36
2022/03/15 10:32:57;;;;;;;;;;;11.10;99.90;;;10.68;85.42;97954.06;4972109;28;20231;-38
2022/03/15 10:35:25;;;;;;;;;;;11.10;99.90;;;10.64;85.60;97949.75;4975449;28;19924;-37
2022/03/15 10:37:52;;;;;;;;;;;11.00;99.90;;;10.55;85.28;97942.09;4979620;28;19913;-36
2022/03/15 10:40:18;;;;;;;;;;;10.90;99.90;;;10.54;85.75;97928.06;4975999;28;20445;-36
2022/03/15 10:42:46;;;;;;;;;;;10.90;99.90;;;10.56;84.03;97935.94;4974581;28;19918;-36
2022/03/15 10:45:21;;;;;;;;;;;10.90;99.90;;;10.51;84.31;97930.78;4972912;28;19917;-36
2022/03/15 10:47:51;;;;;;;;;;;11.00;99.90;;;10.52;84.23;97921.97;4977831;28;19914;-36
2022/03/15 10:50:18;;;;;;;;;;;11.00;99.90;;;10.55;85.30;97918.38;4974779;28;20012;-36
2022/03/15 10:52:45;;;;;;;;;;;11.00;99.90;;;10.52;88.70;97918.47;4975892;28;19914;-34
2022/03/15 10:55:18;;;;;;;;;;;10.90;99.90;;;10.40;88.50;97920.53;4977176;28;19921;-38
2022/03/15 10:57:55;;;;;;;;;;;10.80;99.90;;;10.33;90.65;97934.78;4974235;28;19967;-36
2022/03/15 11:00:42;;;;;;;;;;;10.80;99.90;;;10.29;91.98;97918.16;4979590;28;19917;-37
2022/03/15 11:03:10;;;;;;;;;;;10.70;99.90;;;10.36;93.04;97921.53;4975179;28;19925;-38
2022/03/15 11:05:39;;;;;;;;;;;10.70;99.90;;;10.37;94.28;97925.88;4971738;28;20434;-35
2022/03/15 11:08:11;;;;;;;;;;;10.70;99.90;;;10.42;95.58;97910.78;4976590;28;19922;-38
2022/03/15 11:10:39;;;;;;;;;;;10.70;99.90;;;10.42;96.89;97910.78;4981017;28;19921;-37
2022/03/15 11:13:08;;;;;;;;;;;10.80;99.90;;;10.32;96.78;97893.53;4974141;28;19914;-37
2022/03/15 11:15:48;;;;;;;;;;;10.70;99.90;;;10.23;98.00;97881.44;4978069;28;20078;-36
2022/03/15 11:18:16;;;;;;;;;;;10.70;99.90;;;10.15;98.79;97885.19;4976423;28;19922;-35
2022/03/15 11:20:44;;;;;;;;;;;10.60;99.90;;;10.07;100.00;97882.75;4979160;28;19937;-35
2022/03/15 11:23:14;;;;;;;;;;;10.50;99.90;;;10.07;100.00;97872.22;4972668;28;20627;-37
2022/03/15 11:25:42;;;;;;;;;;;10.50;99.90;;;10.06;100.00;97879.25;4976294;28;19961;-35
2022/03/15 11:28:11;;;;;;;;;;;10.50;99.90;;;9.94;100.00;97871.66;4974017;28;19921;-35